Time;durP1;ratioP1;P1;durP2;ratioP2;P2;SDS_P1;SDS_P2;PMS_P1;PMS_P2;Temp;Humidity;BMP_temperature;BMP_pressure;BME280_temperature;BME280_humidity;BME280_pressure;Samples;Min_cycle;Max_cycle;Signal;HPM_P1;HPM_P2
2023/03/25 00:01:17;;;;;;;7.93;2.88;;;;;;;;;;5072851;28;20473;-66
2023/03/25 00:03:45;;;;;;;8.13;3.38;;;;;;;;;;5070103;28;20032;-65
2023/03/25 00:06:12;;;;;;;8.23;3.47;;;;;;;;;;5079251;28;20016;-66
2023/03/25 00:08:37;;;;;;;10.00;4.00;;;;;;;;;;5079849;28;20123;-67
2023/03/25 00:11:07;;;;;;;14.80;3.80;;;;;;;;;;5094589;28;20114;-65
2023/03/25 00:13:33;;;;;;;5.95;2.75;;;;;;;;;;5093451;28;20016;-65
2023/03/25 00:15:58;;;;;;;8.18;2.88;;;;;;;;;;5089222;28;20023;-68
2023/03/25 00:18:25;;;;;;;7.10;2.67;;;;;;;;;;5089549;28;20024;-68
2023/03/25 00:20:51;;;;;;;13.20;3.55;;;;;;;;;;5089322;28;20102;-68
2023/03/25 00:23:17;;;;;;;9.57;3.05;;;;;;;;;;5088932;28;20046;-68
2023/03/25 00:25:43;;;;;;;6.03;3.03;;;;;;;;;;5095017;28;20028;-65
2023/03/25 00:28:09;;;;;;;11.05;3.40;;;;;;;;;;5082899;28;20024;-68
2023/03/25 00:30:36;;;;;;;6.88;3.33;;;;;;;;;;5081003;28;20464;-68
2023/03/25 00:33:01;;;;;;;6.93;3.15;;;;;;;;;;5090044;28;20109;-66
2023/03/25 00:35:27;;;;;;;8.60;3.30;;;;;;;;;;5069967;28;20135;-67
2023/03/25 00:37:59;;;;;;;8.70;3.50;;;;;;;;;;5089626;28;20103;-64
2023/03/25 00:40:28;;;;;;;10.18;3.95;;;;;;;;;;5082210;28;20031;-67
2023/03/25 00:42:54;;;;;;;11.75;4.50;;;;;;;;;;5093383;28;20099;-65
2023/03/25 00:45:19;;;;;;;9.13;4.20;;;;;;;;;;5091266;28;20039;-68
2023/03/25 00:47:44;;;;;;;8.38;4.22;;;;;;;;;;5089549;28;20008;-66
2023/03/25 00:50:10;;;;;;;14.25;4.60;;;;;;;;;;5089966;28;20125;-67
2023/03/25 00:52:35;;;;;;;9.98;4.88;;;;;;;;;;5089348;28;20028;-67
2023/03/25 00:55:01;;;;;;;9.07;4.38;;;;;;;;;;5099106;28;20028;-67
2023/03/25 00:57:26;;;;;;;7.30;3.45;;;;;;;;;;5064279;28;20035;-67
2023/03/25 00:59:52;;;;;;;9.32;3.17;;;;;;;;;;5089563;28;20016;-66
2023/03/25 01:02:17;;;;;;;7.95;3.15;;;;;;;;;;5086789;28;20035;-67
2023/03/25 01:04:44;;;;;;;9.68;2.90;;;;;;;;;;5086967;28;20619;-65
2023/03/25 01:07:09;;;;;;;5.82;2.88;;;;;;;;;;5062467;28;20024;-67
2023/03/25 01:09:35;;;;;;;8.02;2.95;;;;;;;;;;5095781;28;20012;-67
2023/03/25 01:12:00;;;;;;;9.55;3.78;;;;;;;;;;5097847;28;20066;-69
2023/03/25 01:14:29;;;;;;;11.75;3.83;;;;;;;;;;5094019;28;20024;-66
2023/03/25 01:16:54;;;;;;;7.80;3.25;;;;;;;;;;5088036;28;20024;-69
2023/03/25 01:19:20;;;;;;;8.23;3.10;;;;;;;;;;5088430;28;20031;-68
2023/03/25 01:21:45;;;;;;;8.25;3.20;;;;;;;;;;5087697;28;20052;-66
2023/03/25 01:24:11;;;;;;;8.88;3.35;;;;;;;;;;5088359;28;20020;-68
2023/03/25 01:26:37;;;;;;;12.50;3.33;;;;;;;;;;5086271;28;20028;-66
2023/03/25 01:29:02;;;;;;;20.60;3.00;;;;;;;;;;5084205;28;20043;-65
2023/03/25 01:31:29;;;;;;;9.38;2.55;;;;;;;;;;5095647;28;20365;-67
2023/03/25 01:33:55;;;;;;;8.27;2.88;;;;;;;;;;5107396;28;20028;-67
2023/03/25 01:36:23;;;;;;;5.43;2.35;;;;;;;;;;5087400;28;20027;-67
2023/03/25 01:38:49;;;;;;;12.23;2.88;;;;;;;;;;5069406;28;20111;-68
2023/03/25 01:41:14;;;;;;;8.50;2.63;;;;;;;;;;5096617;28;20107;-67
2023/03/25 01:43:39;;;;;;;5.78;1.60;;;;;;;;;;5109030;28;20011;-66
2023/03/25 01:46:05;;;;;;;5.15;2.00;;;;;;;;;;5108437;28;20039;-65
2023/03/25 01:48:36;;;;;;;11.02;3.00;;;;;;;;;;5091378;28;20093;-68
2023/03/25 01:51:28;;;;;;;7.68;2.17;;;;;;;;;;5097131;28;20057;-68
2023/03/25 01:53:53;;;;;;;5.35;2.22;;;;;;;;;;5089659;28;20453;-66
2023/03/25 01:56:21;;;;;;;7.93;1.83;;;;;;;;;;5086133;28;20047;-65
2023/03/25 01:58:47;;;;;;;4.30;2.17;;;;;;;;;;5087555;28;20046;-67
2023/03/25 02:01:12;;;;;;;7.82;1.83;;;;;;;;;;5086879;28;20047;-66
2023/03/25 02:03:45;;;;;;;10.23;1.92;;;;;;;;;;5087494;28;20357;-63
2023/03/25 02:06:16;;;;;;;7.45;1.92;;;;;;;;;;5082611;28;20030;-64
2023/03/25 02:08:41;;;;;;;8.38;1.90;;;;;;;;;;5086557;28;20096;-66
2023/03/25 02:11:07;;;;;;;5.65;1.90;;;;;;;;;;5089753;28;20119;-67
2023/03/25 02:13:33;;;;;;;8.50;1.90;;;;;;;;;;5100299;28;20511;-68
2023/03/25 02:16:17;;;;;;;3.22;1.67;;;;;;;;;;5087406;28;20024;-65
2023/03/25 02:18:50;;;;;;;9.38;2.00;;;;;;;;;;5087795;28;20008;-64
2023/03/25 02:21:30;;;;;;;6.13;2.03;;;;;;;;;;5086115;28;20532;-67
2023/03/25 02:24:13;;;;;;;5.78;2.38;;;;;;;;;;5086992;28;20154;-65
2023/03/25 02:26:54;;;;;;;9.10;3.20;;;;;;;;;;5086535;28;20024;-66
2023/03/25 02:29:23;;;;;;;10.35;3.08;;;;;;;;;;5076664;28;20474;-65
2023/03/25 02:32:06;;;;;;;10.88;3.28;;;;;;;;;;5087391;28;20024;-65
2023/03/25 02:34:47;;;;;;;15.07;2.50;;;;;;;;;;5073728;28;20690;-67
2023/03/25 02:37:12;;;;;;;5.50;2.47;;;;;;;;;;5087551;28;20031;-64
2023/03/25 02:39:37;;;;;;;7.95;2.28;;;;;;;;;;5101594;28;20020;-68
2023/03/25 02:42:05;;;;;;;8.10;2.27;;;;;;;;;;5096936;28;20123;-66
2023/03/25 02:44:57;;;;;;;7.47;2.05;;;;;;;;;;5096133;28;20251;-67
2023/03/25 02:47:24;;;;;;;5.20;1.98;;;;;;;;;;5088684;28;20024;-68
2023/03/25 02:49:55;;;;;;;5.57;2.25;;;;;;;;;;5094259;28;20020;-67
2023/03/25 02:52:28;;;;;;;6.57;2.17;;;;;;;;;;5055381;28;20048;-66
2023/03/25 02:55:00;;;;;;;5.45;2.00;;;;;;;;;;5087631;28;20024;-66
2023/03/25 02:57:29;;;;;;;7.45;2.05;;;;;;;;;;5085714;28;20038;-67
2023/03/25 02:59:56;;;;;;;4.57;1.38;;;;;;;;;;5087281;28;20100;-68
2023/03/25 03:02:24;;;;;;;5.43;1.73;;;;;;;;;;5072901;28;20027;-66
2023/03/25 03:04:49;;;;;;;5.32;2.20;;;;;;;;;;5087972;28;20038;-65
2023/03/25 03:07:20;;;;;;;9.57;2.33;;;;;;;;;;5081547;28;20029;-67
2023/03/25 03:09:46;;;;;;;4.35;2.40;;;;;;;;;;5098591;28;20582;-67
2023/03/25 03:12:24;;;;;;;9.82;2.20;;;;;;;;;;5090342;28;20032;-65
2023/03/25 03:15:00;;;;;;;6.93;2.30;;;;;;;;;;5096336;28;20030;-67
2023/03/25 03:17:32;;;;;;;14.95;2.33;;;;;;;;;;5090452;28;20119;-66
2023/03/25 03:20:09;;;;;;;11.30;3.17;;;;;;;;;;5078328;28;20036;-66
2023/03/25 03:22:41;;;;;;;6.03;2.25;;;;;;;;;;5090375;28;20101;-64
2023/03/25 03:25:06;;;;;;;9.52;2.40;;;;;;;;;;5090314;28;20099;-68
2023/03/25 03:27:42;;;;;;;7.25;2.63;;;;;;;;;;5087683;28;20504;-68
2023/03/25 03:30:10;;;;;;;5.97;2.10;;;;;;;;;;5079760;28;20025;-68
2023/03/25 03:32:56;;;;;;;7.70;1.90;;;;;;;;;;5089055;28;20721;-66
2023/03/25 03:35:27;;;;;;;5.50;2.00;;;;;;;;;;5061088;28;20048;-65
2023/03/25 03:37:56;;;;;;;10.07;3.58;;;;;;;;;;5101079;28;20141;-65
2023/03/25 03:40:23;;;;;;;5.70;2.13;;;;;;;;;;5090175;28;20039;-67
2023/03/25 03:42:54;;;;;;;5.18;1.85;;;;;;;;;;5090562;28;20024;-66
2023/03/25 03:45:23;;;;;;;6.88;2.30;;;;;;;;;;5093764;28;20024;-68
2023/03/25 03:47:51;;;;;;;7.15;2.55;;;;;;;;;;5090400;28;20051;-67
2023/03/25 03:50:22;;;;;;;8.38;2.00;;;;;;;;;;5091016;28;20426;-67
2023/03/25 03:53:10;;;;;;;4.50;1.95;;;;;;;;;;5110172;28;20023;-69
2023/03/25 03:55:39;;;;;;;8.65;2.20;;;;;;;;;;5076835;28;20497;-64
2023/03/25 03:58:15;;;;;;;10.23;2.33;;;;;;;;;;5090084;28;20070;-67
2023/03/25 04:00:42;;;;;;;4.80;1.70;;;;;;;;;;5100033;28;20434;-65
2023/03/25 04:03:13;;;;;;;3.35;1.60;;;;;;;;;;5107031;28;20048;-66
2023/03/25 04:05:39;;;;;;;4.07;1.35;;;;;;;;;;5085494;28;20026;-65
2023/03/25 04:08:12;;;;;;;3.95;1.25;;;;;;;;;;5079864;28;20574;-67
2023/03/25 04:10:44;;;;;;;2.95;1.02;;;;;;;;;;5088116;28;20106;-67
2023/03/25 04:13:12;;;;;;;3.88;1.17;;;;;;;;;;5100602;28;20130;-64
2023/03/25 04:15:38;;;;;;;8.77;1.38;;;;;;;;;;5082095;28;20020;-67
2023/03/25 04:18:03;;;;;;;3.83;0.95;;;;;;;;;;5073235;28;20030;-66
2023/03/25 04:20:32;;;;;;;3.13;0.90;;;;;;;;;;5097687;28;20036;-67
2023/03/25 04:22:58;;;;;;;1.50;0.90;;;;;;;;;;5070861;28;20034;-66
2023/03/25 04:25:26;;;;;;;1.65;0.80;;;;;;;;;;5089102;28;20087;-66
2023/03/25 04:27:52;;;;;;;1.17;0.68;;;;;;;;;;5086643;28;20098;-64
2023/03/25 04:30:18;;;;;;;2.47;0.65;;;;;;;;;;5083253;28;20089;-66
2023/03/25 04:32:46;;;;;;;2.70;0.73;;;;;;;;;;5102621;28;20028;-66
2023/03/25 04:35:12;;;;;;;2.17;0.90;;;;;;;;;;5089122;28;20024;-65
2023/03/25 04:37:37;;;;;;;0.77;0.60;;;;;;;;;;5087596;28;20028;-66
2023/03/25 04:40:05;;;;;;;1.10;0.70;;;;;;;;;;5088197;28;20488;-66
2023/03/25 04:42:36;;;;;;;0.52;0.52;;;;;;;;;;5081199;28;20031;-65
2023/03/25 04:45:01;;;;;;;1.73;0.70;;;;;;;;;;5102697;28;20024;-64
2023/03/25 04:47:27;;;;;;;1.00;0.73;;;;;;;;;;5088879;28;20165;-67
2023/03/25 04:49:52;;;;;;;0.93;0.70;;;;;;;;;;5089092;28;20016;-66
2023/03/25 04:52:17;;;;;;;1.45;0.70;;;;;;;;;;5088719;28;20500;-66
2023/03/25 04:54:43;;;;;;;2.42;1.00;;;;;;;;;;5086209;28;20498;-66
2023/03/25 04:57:09;;;;;;;1.15;0.60;;;;;;;;;;5094783;28;20061;-67
2023/03/25 04:59:34;;;;;;;4.53;0.60;;;;;;;;;;5108858;28;20045;-66
2023/03/25 05:02:01;;;;;;;1.20;0.63;;;;;;;;;;5088205;28;20028;-64
2023/03/25 05:04:27;;;;;;;1.95;0.80;;;;;;;;;;5088763;28;20043;-66
2023/03/25 05:06:52;;;;;;;0.40;0.40;;;;;;;;;;5079254;28;20067;-67
2023/03/25 05:09:18;;;;;;;0.93;0.63;;;;;;;;;;5082000;28;20024;-69
2023/03/25 05:11:44;;;;;;;2.72;0.70;;;;;;;;;;5088246;28;20019;-67
2023/03/25 05:14:10;;;;;;;0.75;0.50;;;;;;;;;;5088518;28;20095;-64
2023/03/25 05:16:35;;;;;;;2.35;1.13;;;;;;;;;;5093776;28;20024;-67
2023/03/25 05:19:02;;;;;;;1.15;0.60;;;;;;;;;;5109090;28;20027;-64
2023/03/25 05:21:27;;;;;;;0.68;0.60;;;;;;;;;;5102553;28;20023;-68
2023/03/25 05:23:52;;;;;;;4.68;0.90;;;;;;;;;;5071808;28;20012;-66
2023/03/25 05:26:19;;;;;;;1.88;0.73;;;;;;;;;;5107414;28;20096;-66
2023/03/25 05:28:44;;;;;;;1.27;0.60;;;;;;;;;;5082915;28;20482;-66
2023/03/25 05:31:09;;;;;;;1.85;0.70;;;;;;;;;;5084498;28;20042;-66
2023/03/25 05:33:42;;;;;;;0.50;0.50;;;;;;;;;;5073543;28;20118;-67
2023/03/25 05:36:11;;;;;;;6.68;0.70;;;;;;;;;;5090156;28;20061;-68
2023/03/25 05:38:36;;;;;;;1.70;0.63;;;;;;;;;;5087177;28;20024;-67
2023/03/25 05:41:02;;;;;;;2.75;0.73;;;;;;;;;;5087440;28;20115;-65
2023/03/25 05:43:27;;;;;;;1.23;0.63;;;;;;;;;;5088908;28;20079;-67
2023/03/25 05:45:52;;;;;;;1.45;0.70;;;;;;;;;;5090063;28;20028;-66
2023/03/25 05:48:18;;;;;;;1.08;0.68;;;;;;;;;;5087409;28;20510;-67
2023/03/25 05:50:43;;;;;;;0.52;0.45;;;;;;;;;;5101623;28;20044;-65
2023/03/25 05:53:11;;;;;;;3.45;0.80;;;;;;;;;;5090689;28;20090;-66
2023/03/25 05:55:36;;;;;;;0.90;0.57;;;;;;;;;;5087381;28;20038;-68
2023/03/25 05:58:01;;;;;;;2.10;0.70;;;;;;;;;;5087324;28;20202;-65
2023/03/25 06:00:27;;;;;;;1.38;0.70;;;;;;;;;;5093612;28;20047;-68
2023/03/25 06:02:52;;;;;;;6.38;0.75;;;;;;;;;;5087408;28;20062;-66
2023/03/25 06:05:22;;;;;;;4.63;0.98;;;;;;;;;;5096658;28;20467;-68
2023/03/25 06:07:48;;;;;;;3.22;0.68;;;;;;;;;;5076295;28;20020;-68
2023/03/25 06:10:17;;;;;;;4.13;0.90;;;;;;;;;;5100588;28;20119;-64
2023/03/25 06:12:42;;;;;;;4.03;1.05;;;;;;;;;;5087369;28;20011;-66
2023/03/25 06:15:08;;;;;;;2.35;1.13;;;;;;;;;;5087938;28;20562;-68
2023/03/25 06:17:37;;;;;;;2.67;1.45;;;;;;;;;;5086325;28;20583;-65
2023/03/25 06:20:09;;;;;;;2.78;0.85;;;;;;;;;;5087648;28;20392;-66
2023/03/25 06:22:36;;;;;;;4.88;0.77;;;;;;;;;;5087284;28;20020;-65
2023/03/25 06:25:02;;;;;;;3.38;0.70;;;;;;;;;;5086674;28;20080;-65
2023/03/25 06:27:27;;;;;;;7.40;0.98;;;;;;;;;;5085028;28;20623;-69
2023/03/25 06:29:52;;;;;;;3.13;0.80;;;;;;;;;;5085676;28;20016;-65
2023/03/25 06:32:17;;;;;;;6.18;1.48;;;;;;;;;;5096074;28;20477;-69
2023/03/25 06:34:43;;;;;;;4.13;0.80;;;;;;;;;;5078568;28;20021;-67
2023/03/25 06:37:09;;;;;;;3.63;1.02;;;;;;;;;;5086033;28;20043;-68
2023/03/25 06:39:36;;;;;;;5.43;0.90;;;;;;;;;;5086755;28;20020;-65
2023/03/25 06:42:02;;;;;;;3.80;0.90;;;;;;;;;;5093891;28;20020;-65
2023/03/25 06:44:28;;;;;;;3.95;0.70;;;;;;;;;;5082103;28;20102;-67
2023/03/25 06:46:53;;;;;;;5.22;1.92;;;;;;;;;;5071280;28;20051;-67
2023/03/25 06:49:19;;;;;;;5.03;1.02;;;;;;;;;;5089770;28;20019;-68
2023/03/25 06:51:44;;;;;;;3.10;1.05;;;;;;;;;;5090240;28;20074;-65
2023/03/25 06:54:09;;;;;;;2.45;0.90;;;;;;;;;;5087021;28;20104;-66
2023/03/25 06:56:34;;;;;;;2.88;0.70;;;;;;;;;;5085532;28;20032;-67
2023/03/25 06:59:00;;;;;;;5.25;0.90;;;;;;;;;;5086683;28;20445;-68
2023/03/25 07:01:25;;;;;;;3.97;0.90;;;;;;;;;;5084096;28;20089;-68
2023/03/25 07:03:50;;;;;;;3.40;0.80;;;;;;;;;;5087062;28;20173;-65
2023/03/25 07:06:17;;;;;;;2.85;0.80;;;;;;;;;;5086048;28;20015;-66
2023/03/25 07:08:43;;;;;;;5.13;1.23;;;;;;;;;;5081892;28;20107;-67
2023/03/25 07:11:09;;;;;;;1.88;0.93;;;;;;;;;;5060130;28;20103;-67
2023/03/25 07:13:34;;;;;;;5.90;0.88;;;;;;;;;;5083201;28;20078;-66
2023/03/25 07:16:00;;;;;;;0.90;0.55;;;;;;;;;;5075822;28;20024;-65
2023/03/25 07:18:26;;;;;;;3.35;0.70;;;;;;;;;;5059537;28;20111;-68
2023/03/25 07:20:51;;;;;;;6.45;1.10;;;;;;;;;;5093510;28;20092;-65
2023/03/25 07:23:16;;;;;;;3.08;0.80;;;;;;;;;;5084614;28;20077;-68
2023/03/25 07:25:41;;;;;;;1.98;0.50;;;;;;;;;;5085525;28;20078;-67
2023/03/25 07:28:07;;;;;;;5.47;1.05;;;;;;;;;;5086105;28;20071;-68
2023/03/25 07:30:32;;;;;;;5.88;1.17;;;;;;;;;;5085765;28;20016;-66
2023/03/25 07:32:57;;;;;;;3.90;1.00;;;;;;;;;;5095740;28;20020;-68
2023/03/25 07:35:23;;;;;;;1.13;0.70;;;;;;;;;;5084129;28;20520;-65
2023/03/25 07:37:48;;;;;;;1.58;0.70;;;;;;;;;;5085487;28;20016;-67
2023/03/25 07:40:13;;;;;;;2.10;0.80;;;;;;;;;;5085842;28;20027;-66
2023/03/25 07:42:38;;;;;;;1.25;0.73;;;;;;;;;;5085754;28;20032;-64
2023/03/25 07:45:04;;;;;;;3.47;0.88;;;;;;;;;;5083836;28;20020;-67
2023/03/25 07:47:29;;;;;;;5.25;0.70;;;;;;;;;;5083525;28;20062;-64
2023/03/25 07:49:55;;;;;;;0.52;0.52;;;;;;;;;;5089993;28;20016;-68
2023/03/25 07:52:20;;;;;;;2.22;0.55;;;;;;;;;;5086047;28;20031;-68
2023/03/25 07:54:45;;;;;;;1.38;0.60;;;;;;;;;;5091043;28;20027;-65
2023/03/25 07:57:12;;;;;;;1.38;0.70;;;;;;;;;;5085786;28;20030;-67
2023/03/25 07:59:37;;;;;;;1.13;0.60;;;;;;;;;;5085660;28;20028;-67
2023/03/25 08:02:02;;;;;;;2.55;0.88;;;;;;;;;;5088900;28;20422;-68
2023/03/25 08:04:27;;;;;;;4.00;0.77;;;;;;;;;;5089187;28;20432;-66
2023/03/25 08:06:52;;;;;;;3.65;0.80;;;;;;;;;;5087239;28;20016;-68
2023/03/25 08:09:18;;;;;;;3.10;0.75;;;;;;;;;;5081326;28;20066;-68
2023/03/25 08:11:43;;;;;;;0.55;0.50;;;;;;;;;;5093723;28;20024;-69
2023/03/25 08:14:08;;;;;;;1.08;0.68;;;;;;;;;;5089829;28;20031;-66
2023/03/25 08:16:34;;;;;;;8.90;0.60;;;;;;;;;;5088897;28;20028;-68
2023/03/25 08:18:59;;;;;;;0.80;0.60;;;;;;;;;;5090203;28;20024;-68
2023/03/25 08:21:24;;;;;;;0.75;0.68;;;;;;;;;;5086523;28;20046;-68
2023/03/25 08:23:57;;;;;;;2.28;0.73;;;;;;;;;;5082384;28;20408;-68
2023/03/25 08:26:22;;;;;;;0.85;0.70;;;;;;;;;;5087749;28;20522;-67
2023/03/25 08:28:48;;;;;;;8.73;0.77;;;;;;;;;;5087758;28;20170;-65
2023/03/25 08:31:14;;;;;;;2.55;0.73;;;;;;;;;;5078564;28;20044;-67
2023/03/25 08:33:39;;;;;;;1.20;0.60;;;;;;;;;;5085656;28;20138;-68
2023/03/25 08:36:05;;;;;;;2.45;0.70;;;;;;;;;;5087938;28;20043;-68
2023/03/25 08:38:30;;;;;;;2.08;0.80;;;;;;;;;;5079042;28;20446;-66
2023/03/25 08:40:59;;;;;;;3.58;0.98;;;;;;;;;;5079062;28;20155;-65
2023/03/25 08:43:25;;;;;;;1.92;0.88;;;;;;;;;;5084310;28;20028;-67
2023/03/25 08:45:50;;;;;;;2.20;1.00;;;;;;;;;;5080701;28;20055;-67
2023/03/25 08:48:15;;;;;;;1.42;0.57;;;;;;;;;;5087797;28;20415;-68
2023/03/25 08:50:40;;;;;;;3.15;1.02;;;;;;;;;;5082169;28;20008;-67
2023/03/25 08:53:05;;;;;;;4.20;0.98;;;;;;;;;;5063002;28;20104;-68
2023/03/25 08:55:31;;;;;;;2.38;0.90;;;;;;;;;;5106813;28;20125;-68
2023/03/25 08:57:56;;;;;;;2.67;0.77;;;;;;;;;;5099241;28;20087;-69
2023/03/25 09:00:23;;;;;;;2.47;0.80;;;;;;;;;;5090753;28;20622;-67
2023/03/25 09:02:49;;;;;;;1.30;0.80;;;;;;;;;;5074502;28;20047;-65
2023/03/25 09:05:14;;;;;;;0.60;0.60;;;;;;;;;;5066646;28;21438;-66
2023/03/25 09:07:40;;;;;;;1.67;0.80;;;;;;;;;;5067795;28;20024;-64
2023/03/25 09:10:06;;;;;;;4.35;0.95;;;;;;;;;;5046331;28;21039;-67
2023/03/25 09:12:31;;;;;;;4.72;0.85;;;;;;;;;;5077006;28;20027;-67
2023/03/25 09:14:56;;;;;;;0.75;0.70;;;;;;;;;;5058760;28;20049;-65
2023/03/25 09:17:22;;;;;;;2.92;0.90;;;;;;;;;;5078824;28;20020;-67
2023/03/25 09:19:47;;;;;;;2.60;1.00;;;;;;;;;;5085699;28;20476;-65
2023/03/25 09:22:12;;;;;;;4.15;0.88;;;;;;;;;;5099164;28;20119;-68
2023/03/25 09:24:38;;;;;;;7.20;0.93;;;;;;;;;;5101314;28;20043;-67
2023/03/25 09:27:03;;;;;;;1.15;0.77;;;;;;;;;;5087139;28;20096;-69
2023/03/25 09:29:28;;;;;;;1.65;0.77;;;;;;;;;;5089125;28;20036;-66
2023/03/25 09:31:54;;;;;;;1.65;0.90;;;;;;;;;;5088140;28;20044;-67
2023/03/25 09:34:19;;;;;;;2.15;0.90;;;;;;;;;;5088606;28;20048;-64
2023/03/25 09:36:44;;;;;;;3.95;0.70;;;;;;;;;;5086846;28;20453;-68
2023/03/25 09:39:10;;;;;;;5.60;0.93;;;;;;;;;;5091160;28;20028;-68
2023/03/25 09:41:44;;;;;;;2.47;0.70;;;;;;;;;;5109368;28;20011;-66
2023/03/25 09:44:20;;;;;;;5.60;0.90;;;;;;;;;;5091340;28;20031;-64
2023/03/25 09:46:46;;;;;;;1.20;0.60;;;;;;;;;;5087762;28;20031;-68
2023/03/25 09:49:14;;;;;;;10.77;1.15;;;;;;;;;;5088947;28;20044;-67
2023/03/25 09:51:41;;;;;;;2.08;0.85;;;;;;;;;;5078100;28;20118;-66
2023/03/25 09:54:17;;;;;;;3.00;0.73;;;;;;;;;;5079777;28;20020;-67
2023/03/25 09:56:43;;;;;;;2.05;0.93;;;;;;;;;;5095925;28;20016;-66
2023/03/25 09:59:19;;;;;;;6.22;0.77;;;;;;;;;;5087675;28;20342;-70
2023/03/25 10:01:54;;;;;;;4.43;1.17;;;;;;;;;;5088029;28;20095;-67
2023/03/25 10:04:19;;;;;;;3.20;1.00;;;;;;;;;;5081945;28;20016;-66
2023/03/25 10:06:44;;;;;;;1.55;0.55;;;;;;;;;;5073637;28;20016;-66
2023/03/25 10:09:31;;;;;;;1.90;0.93;;;;;;;;;;5081902;28;20012;-65
2023/03/25 10:12:11;;;;;;;5.32;1.00;;;;;;;;;;5087968;28;20257;-66
2023/03/25 10:14:45;;;;;;;2.97;1.10;;;;;;;;;;5087565;28;20100;-66
2023/03/25 10:17:20;;;;;;;3.60;0.82;;;;;;;;;;5100474;28;20020;-67
2023/03/25 10:19:49;;;;;;;1.63;0.75;;;;;;;;;;5087754;28;20020;-67
2023/03/25 10:22:16;;;;;;;4.80;0.70;;;;;;;;;;5095117;28;20027;-64
2023/03/25 10:24:59;;;;;;;0.90;0.55;;;;;;;;;;5094008;28;20057;-66
2023/03/25 10:27:24;;;;;;;2.13;0.85;;;;;;;;;;5093078;28;20019;-66
2023/03/25 10:29:52;;;;;;;6.32;0.80;;;;;;;;;;5088002;28;20095;-68
2023/03/25 10:32:24;;;;;;;1.00;0.70;;;;;;;;;;5098327;28;20047;-69
2023/03/25 10:34:51;;;;;;;1.23;0.55;;;;;;;;;;5074863;28;20050;-68
2023/03/25 10:37:23;;;;;;;2.70;1.10;;;;;;;;;;5106772;28;20020;-68
2023/03/25 10:39:48;;;;;;;1.67;0.88;;;;;;;;;;5072974;28;20426;-65
2023/03/25 10:42:21;;;;;;;2.72;1.23;;;;;;;;;;5095646;28;20016;-64
2023/03/25 10:44:47;;;;;;;1.20;0.82;;;;;;;;;;5100972;28;20020;-68
2023/03/25 10:47:16;;;;;;;2.80;0.75;;;;;;;;;;5099766;28;20012;-69
2023/03/25 10:49:43;;;;;;;1.35;0.68;;;;;;;;;;5072422;28;20497;-69
2023/03/25 10:52:09;;;;;;;2.67;0.77;;;;;;;;;;5072918;28;20032;-69
2023/03/25 10:54:36;;;;;;;2.78;0.90;;;;;;;;;;5078327;28;20405;-67
2023/03/25 10:57:03;;;;;;;1.75;0.80;;;;;;;;;;5086526;28;20024;-69
2023/03/25 10:59:29;;;;;;;3.33;0.73;;;;;;;;;;5087052;28;20043;-67
2023/03/25 11:01:55;;;;;;;1.90;0.88;;;;;;;;;;5099825;28;20541;-67
2023/03/25 11:04:20;;;;;;;4.22;1.08;;;;;;;;;;5088223;28;20125;-69
2023/03/25 11:06:51;;;;;;;2.20;0.73;;;;;;;;;;5099583;28;20015;-66
2023/03/25 11:09:21;;;;;;;0.82;0.60;;;;;;;;;;5081239;28;20020;-67
2023/03/25 11:11:47;;;;;;;4.22;0.68;;;;;;;;;;5086655;28;20047;-65
2023/03/25 11:14:12;;;;;;;4.05;1.00;;;;;;;;;;5087406;28;20040;-68
2023/03/25 11:16:48;;;;;;;1.55;0.75;;;;;;;;;;5100975;28;20040;-70
2023/03/25 11:19:16;;;;;;;0.80;0.52;;;;;;;;;;5097260;28;20135;-69
2023/03/25 11:21:45;;;;;;;4.13;1.58;;;;;;;;;;5092751;28;20020;-67
2023/03/25 11:24:13;;;;;;;5.28;0.93;;;;;;;;;;5090835;28;20057;-66
2023/03/25 11:26:39;;;;;;;1.20;0.80;;;;;;;;;;5089920;28;20077;-65
2023/03/25 11:29:11;;;;;;;4.72;0.90;;;;;;;;;;5080106;28;20024;-69
2023/03/25 11:31:37;;;;;;;3.67;0.77;;;;;;;;;;5089283;28;20020;-68
2023/03/25 11:34:23;;;;;;;1.80;0.80;;;;;;;;;;5091513;28;20406;-69
2023/03/25 11:37:21;;;;;;;3.95;0.70;;;;;;;;;;5089109;28;20544;-67
2023/03/25 11:39:56;;;;;;;0.80;0.55;;;;;;;;;;5061577;28;20035;-64
2023/03/25 11:42:21;;;;;;;2.72;1.23;;;;;;;;;;5112934;28;20023;-66
2023/03/25 11:44:53;;;;;;;2.85;0.85;;;;;;;;;;5092291;28;20081;-66
2023/03/25 11:47:21;;;;;;;1.88;0.88;;;;;;;;;;5089964;28;20481;-65
2023/03/25 11:49:48;;;;;;;1.85;0.77;;;;;;;;;;5090213;28;20427;-67
2023/03/25 11:52:33;;;;;;;1.35;0.88;;;;;;;;;;5058066;28;20036;-69
2023/03/25 11:54:59;;;;;;;2.25;0.80;;;;;;;;;;5091790;28;20433;-67
2023/03/25 11:57:26;;;;;;;4.47;0.80;;;;;;;;;;5092763;28;20026;-69
2023/03/25 12:00:00;;;;;;;5.80;1.15;;;;;;;;;;5090067;28;20504;-68
2023/03/25 12:02:27;;;;;;;2.35;0.73;;;;;;;;;;5102244;28;20173;-67
2023/03/25 12:04:55;;;;;;;5.55;1.00;;;;;;;;;;5089905;28;20024;-65
2023/03/25 12:07:20;;;;;;;5.55;0.75;;;;;;;;;;5102462;28;20074;-67
2023/03/25 12:09:53;;;;;;;4.35;0.80;;;;;;;;;;5084117;28;20028;-66
2023/03/25 12:12:22;;;;;;;6.80;0.98;;;;;;;;;;5090136;28;20107;-65
2023/03/25 12:15:06;;;;;;;6.28;1.00;;;;;;;;;;5090315;28;20020;-68
2023/03/25 12:17:37;;;;;;;1.42;0.70;;;;;;;;;;5088635;28;20039;-69
2023/03/25 12:20:22;;;;;;;1.70;0.75;;;;;;;;;;5090137;28;20146;-68
2023/03/25 12:22:49;;;;;;;4.32;1.05;;;;;;;;;;5088907;28;20101;-67
2023/03/25 12:25:17;;;;;;;2.25;0.82;;;;;;;;;;5088814;28;20026;-69
2023/03/25 12:28:04;;;;;;;3.88;0.80;;;;;;;;;;5084920;28;20032;-66
2023/03/25 12:30:35;;;;;;;2.30;0.70;;;;;;;;;;5087109;28;20572;-69
2023/03/25 12:33:12;;;;;;;1.02;0.52;;;;;;;;;;5090008;28;20034;-66
2023/03/25 12:35:48;;;;;;;10.13;1.40;;;;;;;;;;5089220;28;20020;-66
2023/03/25 12:38:20;;;;;;;1.15;0.50;;;;;;;;;;5068599;28;20035;-67
2023/03/25 12:40:58;;;;;;;1.52;0.98;;;;;;;;;;5089107;28;20027;-64
2023/03/25 12:43:33;;;;;;;4.68;1.30;;;;;;;;;;5085993;28;20551;-68
2023/03/25 12:46:21;;;;;;;1.05;0.70;;;;;;;;;;5082919;28;20398;-66
2023/03/25 12:48:49;;;;;;;2.58;0.90;;;;;;;;;;5056849;28;20085;-67
2023/03/25 12:51:40;;;;;;;1.67;0.70;;;;;;;;;;5082124;28;20610;-66
2023/03/25 12:54:08;;;;;;;5.60;1.15;;;;;;;;;;5083082;28;20012;-66
2023/03/25 12:56:43;;;;;;;2.43;0.80;;;;;;;;;;5077888;28;20140;-67
2023/03/25 12:59:14;;;;;;;2.90;0.60;;;;;;;;;;5076808;28;20020;-70
2023/03/25 13:01:39;;;;;;;1.45;0.65;;;;;;;;;;5096004;28;20061;-66
2023/03/25 13:04:04;;;;;;;4.93;1.27;;;;;;;;;;5088529;28;20141;-67
2023/03/25 13:06:45;;;;;;;5.57;0.90;;;;;;;;;;5087254;28;20299;-65
2023/03/25 13:09:15;;;;;;;2.67;1.10;;;;;;;;;;5087771;28;20027;-66
2023/03/25 13:11:49;;;;;;;1.00;0.70;;;;;;;;;;5089946;28;20164;-66
2023/03/25 13:14:26;;;;;;;4.95;0.77;;;;;;;;;;5088735;28;20035;-68
2023/03/25 13:16:54;;;;;;;3.47;0.73;;;;;;;;;;5101955;28;20035;-66
2023/03/25 13:19:21;;;;;;;6.32;1.60;;;;;;;;;;5088086;28;20058;-68
2023/03/25 13:21:51;;;;;;;3.45;0.93;;;;;;;;;;5083736;28;20096;-70
2023/03/25 13:24:18;;;;;;;0.63;0.60;;;;;;;;;;5077176;28;20069;-66
2023/03/25 13:26:44;;;;;;;0.68;0.63;;;;;;;;;;5095830;28;20024;-67
2023/03/25 13:29:16;;;;;;;3.22;0.63;;;;;;;;;;5082233;28;20024;-68
2023/03/25 13:31:43;;;;;;;6.22;0.68;;;;;;;;;;5080192;28;20024;-68
2023/03/25 13:34:08;;;;;;;0.95;0.60;;;;;;;;;;5094815;28;20051;-67
2023/03/25 13:36:36;;;;;;;1.07;0.60;;;;;;;;;;5088016;28;20100;-64
2023/03/25 13:39:05;;;;;;;1.00;0.55;;;;;;;;;;5100054;28;20252;-67
2023/03/25 13:41:38;;;;;;;0.70;0.70;;;;;;;;;;5088413;28;20028;-65
2023/03/25 13:44:21;;;;;;;3.17;0.70;;;;;;;;;;5097846;28;20103;-68
2023/03/25 13:47:07;;;;;;;1.25;0.70;;;;;;;;;;5079214;28;20313;-67
2023/03/25 13:49:45;;;;;;;4.00;1.10;;;;;;;;;;5086770;28;20020;-69
2023/03/25 13:52:12;;;;;;;0.82;0.68;;;;;;;;;;5082242;28;20024;-67
2023/03/25 13:54:40;;;;;;;0.93;0.63;;;;;;;;;;5087864;28;20035;-68
2023/03/25 13:57:19;;;;;;;2.05;0.80;;;;;;;;;;5086003;28;20434;-67
2023/03/25 14:00:10;;;;;;;3.85;1.10;;;;;;;;;;5086968;28;20486;-67
2023/03/25 14:02:44;;;;;;;4.28;1.15;;;;;;;;;;5088980;28;20362;-68
2023/03/25 14:05:24;;;;;;;1.55;0.57;;;;;;;;;;5086877;28;20016;-66
2023/03/25 14:07:49;;;;;;;4.13;1.00;;;;;;;;;;5084651;28;20359;-68
2023/03/25 14:10:27;;;;;;;1.63;0.68;;;;;;;;;;5066587;28;20458;-63
2023/03/25 14:12:55;;;;;;;2.50;0.60;;;;;;;;;;5097658;28;20538;-66
2023/03/25 14:15:22;;;;;;;2.87;0.70;;;;;;;;;;5094473;28;20402;-68
2023/03/25 14:17:49;;;;;;;6.55;0.85;;;;;;;;;;5095892;28;20046;-66
2023/03/25 14:20:24;;;;;;;2.00;0.90;;;;;;;;;;5087396;28;20020;-67
2023/03/25 14:22:54;;;;;;;2.10;1.20;;;;;;;;;;5086661;28;20056;-66
2023/03/25 14:25:32;;;;;;;1.20;0.80;;;;;;;;;;5058622;28;20403;-68
2023/03/25 14:27:58;;;;;;;4.47;1.23;;;;;;;;;;5072947;28;20024;-67
2023/03/25 14:30:26;;;;;;;5.80;1.30;;;;;;;;;;5090623;28;20085;-69
2023/03/25 14:32:52;;;;;;;1.13;0.70;;;;;;;;;;5100164;28;20026;-66
2023/03/25 14:35:30;;;;;;;2.15;0.80;;;;;;;;;;5095469;28;20118;-66
2023/03/25 14:37:55;;;;;;;5.57;1.30;;;;;;;;;;5088712;28;20019;-69
2023/03/25 14:40:42;;;;;;;1.65;0.80;;;;;;;;;;5086461;28;20024;-66
2023/03/25 14:43:23;;;;;;;1.45;0.80;;;;;;;;;;5091836;28;20055;-69
2023/03/25 14:46:09;;;;;;;4.95;1.10;;;;;;;;;;5087430;28;20027;-70
2023/03/25 14:48:36;;;;;;;3.38;0.82;;;;;;;;;;5095388;28;20049;-68
2023/03/25 14:51:27;;;;;;;3.72;1.00;;;;;;;;;;5074258;28;20024;-69
2023/03/25 14:54:01;;;;;;;4.75;0.90;;;;;;;;;;5040571;28;21433;-69